Fairmount Springs, Pennsylvania
Current Conditions -  °F | °C
As of 3:55 PM on Thursday 27 Nov 2014 (Local Time) from KHZL Reporting Station
Overcast Overcast  
Wind Chill: 25°   Ceiling: 800
Heat Index: 30°   Visibility: 7mi
Dew Point: 28°   Wind: 5mph
Humidity: 93%   Direction: 270°W
Pressure: 30.01"   Gusts: NA
Location:  41.2534°N, 76.3299°W
Report Text: KHZL 272055Z AUTO 27004KT 7SM BKN008 BKN021 OVC032 M01/M02 A3001 RMK AO2
Loading
Personal Weather Stations






























Interactive Weather Map New forecast layout! Learn more

10-Day Weather Forecast

Advertisements
Track Severe Weather on mobile